createdAt,value
2017-08-13T00:01:51.252Z,101259.65
2017-08-13T00:04:19.081Z,101270.03
2017-08-13T00:06:46.960Z,101270.23
2017-08-13T00:09:14.825Z,101271.00
2017-08-13T00:11:42.711Z,101267.61
2017-08-13T00:14:10.575Z,101262.26
2017-08-13T00:16:38.404Z,101253.42
2017-08-13T00:19:06.213Z,101261.72
2017-08-13T00:21:34.024Z,101257.44
2017-08-13T00:24:01.808Z,101260.70
2017-08-13T00:26:29.642Z,101258.39
2017-08-13T00:28:57.525Z,101255.97
2017-08-13T00:31:25.369Z,101262.59
2017-08-13T00:33:53.236Z,101264.83
2017-08-13T00:36:21.046Z,101274.77
2017-08-13T00:38:48.963Z,101278.58
2017-08-13T00:41:16.807Z,101280.39
2017-08-13T00:43:44.684Z,101280.48
2017-08-13T00:46:12.518Z,101279.36
2017-08-13T00:48:40.344Z,101276.45
2017-08-13T00:51:08.197Z,101279.61
2017-08-13T00:53:36.048Z,101269.81
2017-08-13T00:56:03.934Z,101269.81
2017-08-13T00:58:31.751Z,101275.36
2017-08-13T01:00:59.665Z,101285.16
2017-08-13T01:03:27.464Z,101289.21
2017-08-13T01:05:55.391Z,101294.98
2017-08-13T01:08:23.217Z,101292.36
2017-08-13T01:10:51.089Z,101296.73
2017-08-13T01:13:18.901Z,101299.53
2017-08-13T01:15:46.809Z,101303.06
2017-08-13T01:18:14.609Z,101295.06
2017-08-13T01:20:42.392Z,101296.24
2017-08-13T01:23:10.207Z,101296.14
2017-08-13T01:25:38.028Z,101292.62
2017-08-13T01:28:05.895Z,101298.45
2017-08-13T01:30:33.733Z,101306.47
2017-08-13T01:33:01.600Z,101304.43
2017-08-13T01:35:29.428Z,101302.84
2017-08-13T01:37:57.229Z,101306.89
2017-08-13T01:40:25.064Z,101305.42
2017-08-13T01:42:52.820Z,101312.08
2017-08-13T01:45:20.623Z,101314.31
2017-08-13T01:47:48.517Z,101311.86
2017-08-13T01:50:16.354Z,101306.33
2017-08-13T01:52:44.156Z,101311.77
2017-08-13T01:55:12.013Z,101310.45
2017-08-13T01:57:39.853Z,101319.70
2017-08-13T02:00:07.715Z,101312.61
2017-08-13T02:02:35.537Z,101316.39
2017-08-13T02:05:03.403Z,101317.31
2017-08-13T02:07:31.264Z,101315.55
2017-08-13T02:09:59.106Z,101317.86
2017-08-13T02:12:26.917Z,101320.81
2017-08-13T02:14:54.783Z,101317.45
2017-08-13T02:17:22.623Z,101323.45
2017-08-13T02:19:50.455Z,101315.63
2017-08-13T02:22:18.315Z,101318.27
2017-08-13T02:24:46.138Z,101320.84
2017-08-13T02:27:14.019Z,101324.05
2017-08-13T02:29:41.888Z,101329.24
2017-08-13T02:32:09.755Z,101326.83
2017-08-13T02:34:37.576Z,101331.87
2017-08-13T02:37:05.483Z,101327.42
2017-08-13T02:39:33.322Z,101335.18
2017-08-13T02:42:01.095Z,101327.83
2017-08-13T02:44:28.926Z,101330.48
2017-08-13T02:46:56.783Z,101330.30
2017-08-13T02:49:24.595Z,101334.02
2017-08-13T02:51:52.420Z,101340.67
2017-08-13T02:54:20.209Z,101333.94
2017-08-13T02:56:48.047Z,101339.30
2017-08-13T02:59:15.924Z,101342.75
2017-08-13T03:01:43.742Z,101341.61
2017-08-13T03:04:11.606Z,101332.44
2017-08-13T03:06:39.343Z,101342.84
2017-08-13T03:09:07.188Z,101339.72
2017-08-13T03:11:35.009Z,101343.40
2017-08-13T03:14:02.890Z,101345.81
2017-08-13T03:16:30.716Z,101343.66
2017-08-13T03:18:58.581Z,101349.10
2017-08-13T03:21:26.409Z,101348.68
2017-08-13T03:23:54.193Z,101349.52
2017-08-13T03:26:22.035Z,101348.45
2017-08-13T03:28:49.843Z,101348.92
2017-08-13T03:31:17.705Z,101355.41
2017-08-13T03:33:45.539Z,101354.90
2017-08-13T03:36:13.416Z,101368.34
2017-08-13T03:38:41.225Z,101367.27
2017-08-13T03:41:09.142Z,101367.59
2017-08-13T03:43:36.969Z,101372.70
2017-08-13T03:46:04.829Z,101370.22
2017-08-13T03:48:32.653Z,101376.91
2017-08-13T03:51:00.505Z,101389.76
2017-08-13T03:53:28.323Z,101389.76
2017-08-13T03:55:56.118Z,101387.21
2017-08-13T03:58:23.951Z,101388.45
2017-08-13T04:00:51.776Z,101389.10
2017-08-13T04:03:19.618Z,101388.77
2017-08-13T04:05:47.499Z,101399.41
2017-08-13T04:08:15.365Z,101398.58
2017-08-13T04:10:43.201Z,101406.11
2017-08-13T04:13:11.100Z,101409.64
2017-08-13T04:15:38.912Z,101408.72
2017-08-13T04:18:06.770Z,101410.80
2017-08-13T04:20:34.601Z,101419.63
2017-08-13T04:23:02.457Z,101428.20
2017-08-13T04:25:30.281Z,101434.48
2017-08-13T04:27:58.117Z,101433.72
2017-08-13T04:30:25.993Z,101441.98
2017-08-13T04:32:53.821Z,101441.64
2017-08-13T04:35:21.692Z,101442.47
2017-08-13T04:37:49.515Z,101439.73
2017-08-13T04:40:17.423Z,101448.97
2017-08-13T04:42:45.153Z,101452.68
2017-08-13T04:45:13.015Z,101454.91
2017-08-13T04:47:40.834Z,101457.98
2017-08-13T04:50:08.724Z,101460.09
2017-08-13T04:52:36.533Z,101467.78
2017-08-13T04:55:04.400Z,101465.48
2017-08-13T04:57:32.139Z,101470.66
2017-08-13T04:59:59.972Z,101475.34
2017-08-13T05:02:27.849Z,101476.16
2017-08-13T05:04:55.701Z,101473.12
2017-08-13T05:07:23.604Z,101482.59
2017-08-13T05:09:51.451Z,101473.27
2017-08-13T05:12:19.315Z,101483.61
2017-08-13T05:14:47.113Z,101491.20
2017-08-13T05:17:14.981Z,101498.03
2017-08-13T05:19:42.789Z,101497.15
2017-08-13T05:22:10.643Z,101501.27
2017-08-13T05:24:38.451Z,101509.70
2017-08-13T05:27:06.343Z,101509.09
2017-08-13T05:29:34.193Z,101522.81
2017-08-13T05:32:02.060Z,101519.91
2017-08-13T05:34:29.878Z,101521.80
2017-08-13T05:36:57.703Z,101526.36
2017-08-13T05:39:25.589Z,101521.56
2017-08-13T05:41:53.400Z,101526.17
2017-08-13T05:44:21.267Z,101525.09
2017-08-13T05:46:49.084Z,101519.63
2017-08-13T05:49:16.961Z,101516.34
2017-08-13T05:51:44.796Z,101525.42
2017-08-13T05:54:12.686Z,101527.33
2017-08-13T05:56:40.498Z,101535.42
2017-08-13T05:59:08.376Z,101534.64
2017-08-13T06:01:36.231Z,101540.98
2017-08-13T06:04:04.145Z,101546.04
2017-08-13T06:06:31.996Z,101550.64
2017-08-13T06:08:59.869Z,101551.77
2017-08-13T06:11:27.700Z,101558.80
2017-08-13T06:13:55.535Z,101559.86
2017-08-13T06:16:23.436Z,101566.41
2017-08-13T06:18:51.282Z,101572.25
2017-08-13T06:21:19.164Z,101574.39
2017-08-13T06:23:47.033Z,101573.56
2017-08-13T06:26:14.908Z,101566.87
2017-08-13T06:28:42.716Z,101572.47
2017-08-13T06:31:10.629Z,101577.64
2017-08-13T06:33:38.381Z,101570.62
2017-08-13T06:36:06.265Z,101583.34
2017-08-13T06:38:34.104Z,101588.02
2017-08-13T06:41:01.970Z,101592.63
2017-08-13T06:43:29.697Z,101591.38
2017-08-13T06:45:57.506Z,101593.14
2017-08-13T06:48:25.231Z,101597.20
2017-08-13T06:50:52.984Z,101599.73
2017-08-13T06:53:20.728Z,101606.13
2017-08-13T06:55:48.430Z,101606.03
2017-08-13T06:58:16.215Z,101604.45
2017-08-13T07:00:43.963Z,101611.27
2017-08-13T07:03:11.721Z,101613.08
2017-08-13T07:05:39.450Z,101619.75
2017-08-13T07:08:07.247Z,101617.48
2017-08-13T07:10:35.015Z,101625.42
2017-08-13T07:13:02.798Z,101622.58
2017-08-13T07:15:30.512Z,101621.61
2017-08-13T07:17:58.332Z,101631.30
2017-08-13T07:20:26.053Z,101633.77
2017-08-13T07:22:54.375Z,101631.61
2017-08-13T07:25:22.175Z,101631.02
2017-08-13T07:27:49.931Z,101633.98
2017-08-13T07:30:17.675Z,101639.09
2017-08-13T07:32:45.417Z,101640.46
2017-08-13T07:35:13.200Z,101641.25
2017-08-13T07:37:40.932Z,101646.66
2017-08-13T07:40:08.709Z,101640.51
2017-08-13T07:42:36.447Z,101640.58
2017-08-13T07:45:04.325Z,101636.39
2017-08-13T07:47:32.145Z,101641.08
2017-08-13T07:49:59.931Z,101643.64
2017-08-13T07:52:27.751Z,101651.96
2017-08-13T07:54:55.605Z,101664.17
2017-08-13T07:57:23.382Z,101655.14
2017-08-13T07:59:51.311Z,101648.75
2017-08-13T08:02:19.173Z,101655.93
2017-08-13T08:04:47.004Z,101663.16
2017-08-13T08:07:14.908Z,101659.16
2017-08-13T08:09:42.734Z,101660.59
2017-08-13T08:12:10.535Z,101659.22
2017-08-13T08:14:38.349Z,101665.03
2017-08-13T08:17:06.202Z,101668.48
2017-08-13T08:19:33.972Z,101665.55
2017-08-13T08:22:01.845Z,101671.84
2017-08-13T08:24:29.716Z,101668.95
2017-08-13T08:26:57.581Z,101677.80
2017-08-13T08:29:25.406Z,101679.58
2017-08-13T08:31:53.282Z,101683.04
2017-08-13T08:34:21.098Z,101684.52
2017-08-13T08:36:48.903Z,101686.44
2017-08-13T08:39:16.717Z,101694.22
2017-08-13T08:41:44.568Z,101695.50
2017-08-13T08:44:12.428Z,101688.81
2017-08-13T08:46:40.280Z,101688.83
2017-08-13T08:49:08.059Z,101688.66
2017-08-13T08:51:35.879Z,101696.52
2017-08-13T08:54:03.652Z,101694.22
2017-08-13T08:56:31.362Z,101698.70
2017-08-13T08:58:59.156Z,101697.53
2017-08-13T09:01:26.890Z,101700.30
2017-08-13T09:03:54.705Z,101693.40
2017-08-13T09:06:22.568Z,101702.73
2017-08-13T09:08:50.415Z,101707.02
2017-08-13T09:11:18.296Z,101704.02
2017-08-13T09:13:46.132Z,101705.49
2017-08-13T09:16:14.004Z,101709.34
2017-08-13T09:18:41.850Z,101711.23
2017-08-13T09:21:09.723Z,101706.03
2017-08-13T09:23:37.571Z,101706.34
2017-08-13T09:26:05.442Z,101708.42
2017-08-13T09:28:33.250Z,101708.69
2017-08-13T09:31:02.093Z,101703.61
2017-08-13T09:33:29.921Z,101706.20
2017-08-13T09:35:57.849Z,101696.77
2017-08-13T09:38:25.700Z,101702.71
2017-08-13T09:40:53.536Z,101697.27
2017-08-13T09:43:21.343Z,101704.98
2017-08-13T09:45:49.080Z,101693.62
2017-08-13T09:48:16.876Z,101696.53
2017-08-13T09:50:44.588Z,101695.29
2017-08-13T09:53:12.383Z,101694.26
2017-08-13T09:55:40.130Z,101702.42
2017-08-13T09:58:07.920Z,101695.31
2017-08-13T10:00:35.755Z,101695.02
2017-08-13T10:03:03.667Z,101700.47
2017-08-13T10:05:31.552Z,101704.86
2017-08-13T10:07:59.488Z,101700.84
2017-08-13T10:10:27.353Z,101703.20
2017-08-13T10:12:55.216Z,101702.09
2017-08-13T10:15:23.119Z,101698.78
2017-08-13T10:17:50.954Z,101697.59
2017-08-13T10:20:18.848Z,101707.87
2017-08-13T10:22:46.690Z,101701.50
2017-08-13T10:25:14.579Z,101694.63
2017-08-13T10:27:42.425Z,101711.77
2017-08-13T10:30:10.320Z,101706.29
2017-08-13T10:32:38.161Z,101715.14
2017-08-13T10:35:06.018Z,101705.55
2017-08-13T10:37:33.857Z,101709.75
2017-08-13T10:40:01.738Z,101704.24
2017-08-13T10:42:29.579Z,101709.79
2017-08-13T10:44:57.431Z,101711.71
2017-08-13T10:47:25.210Z,101713.69
2017-08-13T10:49:53.063Z,101721.66
2017-08-13T10:52:20.917Z,101717.23
2017-08-13T10:54:48.743Z,101720.61
2017-08-13T10:57:16.625Z,101712.84
2017-08-13T10:59:44.455Z,101719.88
2017-08-13T11:02:12.345Z,101709.34
2017-08-13T11:04:40.164Z,101706.82
2017-08-13T11:07:08.522Z,101716.98
2017-08-13T11:09:36.355Z,101726.17
2017-08-13T11:12:04.289Z,101727.67
2017-08-13T11:14:32.124Z,101728.39
2017-08-13T11:16:59.997Z,101731.77
2017-08-13T11:19:27.858Z,101757.66
2017-08-13T11:21:55.750Z,101763.83
2017-08-13T11:24:23.594Z,101766.63
2017-08-13T11:26:51.499Z,101775.51
2017-08-13T11:29:19.316Z,101767.65
2017-08-13T11:31:47.202Z,101769.64
2017-08-13T11:34:15.056Z,101765.53
2017-08-13T11:36:42.957Z,101769.11
2017-08-13T11:39:10.764Z,101770.38
2017-08-13T11:41:38.640Z,101770.69
2017-08-13T11:44:06.463Z,101773.08
2017-08-13T11:46:34.345Z,101775.53
2017-08-13T11:49:02.157Z,101775.03
2017-08-13T11:51:30.166Z,101766.28
2017-08-13T11:53:57.963Z,101770.55
2017-08-13T11:56:25.806Z,101766.67
2017-08-13T11:58:53.694Z,101766.46
2017-08-13T12:01:21.523Z,101764.25
2017-08-13T12:03:49.410Z,101758.59
2017-08-13T12:06:17.294Z,101756.83
2017-08-13T12:08:45.151Z,101759.22
2017-08-13T12:11:12.964Z,101759.55
2017-08-13T12:13:41.187Z,101761.97
2017-08-13T12:16:09.027Z,101764.76
2017-08-13T12:18:36.903Z,101755.80
2017-08-13T12:21:04.727Z,101762.45
2017-08-13T12:23:32.584Z,101769.41
2017-08-13T12:26:00.435Z,101769.95
2017-08-13T12:28:28.377Z,101765.13
2017-08-13T12:30:56.194Z,101766.32
2017-08-13T12:33:23.996Z,101771.34
2017-08-13T12:35:51.869Z,101761.09
2017-08-13T12:38:19.701Z,101769.80
2017-08-13T12:40:47.567Z,101777.81
2017-08-13T12:43:15.387Z,101778.33
2017-08-13T12:45:43.316Z,101777.59
2017-08-13T12:48:11.169Z,101785.11
2017-08-13T12:50:39.082Z,101779.03
2017-08-13T12:53:06.922Z,101786.92
2017-08-13T12:55:34.830Z,101793.70
2017-08-13T12:58:02.694Z,101792.64
2017-08-13T13:00:30.565Z,101790.94
2017-08-13T13:02:58.468Z,101792.87
2017-08-13T13:05:26.313Z,101792.92
2017-08-13T13:07:54.250Z,101797.80
2017-08-13T13:10:22.146Z,101790.14
2017-08-13T13:12:49.935Z,101795.82
2017-08-13T13:15:17.787Z,101794.95
2017-08-13T13:17:45.661Z,101790.22
2017-08-13T13:20:13.513Z,101797.02
2017-08-13T13:22:41.417Z,101799.52
2017-08-13T13:25:09.262Z,101793.99
2017-08-13T13:27:37.162Z,101799.58
2017-08-13T13:30:04.998Z,101792.78
2017-08-13T13:32:32.874Z,101796.50
2017-08-13T13:35:00.695Z,101807.55
2017-08-13T13:37:28.540Z,101810.41
2017-08-13T13:39:56.420Z,101814.83
2017-08-13T13:42:24.175Z,101813.79
2017-08-13T13:44:52.064Z,101812.05
2017-08-13T13:47:19.928Z,101813.22
2017-08-13T13:49:47.823Z,101819.96
2017-08-13T13:52:15.680Z,101824.11
2017-08-13T13:54:43.570Z,101823.11
2017-08-13T13:57:11.396Z,101819.05
2017-08-13T13:59:39.296Z,101815.80
2017-08-13T14:02:07.152Z,101818.16
2017-08-13T14:04:35.057Z,101818.49
2017-08-13T14:07:02.953Z,101820.16
2017-08-13T14:09:30.903Z,101822.16
2017-08-13T14:11:58.764Z,101823.20
2017-08-13T14:14:26.600Z,101824.34
2017-08-13T14:16:54.506Z,101822.05
2017-08-13T14:19:22.348Z,101823.89
2017-08-13T14:21:50.231Z,101835.99
2017-08-13T14:24:18.113Z,101832.66
2017-08-13T14:26:46.004Z,101834.11
2017-08-13T14:29:13.831Z,101838.56
2017-08-13T14:31:41.714Z,101840.77
2017-08-13T14:34:09.552Z,101838.18
2017-08-13T14:36:37.424Z,101841.77
2017-08-13T14:39:05.308Z,101841.27
2017-08-13T14:41:33.196Z,101845.22
2017-08-13T14:44:01.017Z,101850.42
2017-08-13T14:46:28.903Z,101846.19
2017-08-13T14:48:56.787Z,101853.17
2017-08-13T14:51:24.645Z,101846.50
2017-08-13T14:53:52.433Z,101853.40
2017-08-13T14:56:20.278Z,101850.58
2017-08-13T14:58:48.170Z,101850.47
2017-08-13T15:01:16.013Z,101853.67
2017-08-13T15:03:43.871Z,101855.91
2017-08-13T15:06:11.741Z,101855.05
2017-08-13T15:08:39.724Z,101858.01
2017-08-13T15:11:07.571Z,101855.88
2017-08-13T15:13:35.489Z,101857.72
2017-08-13T15:16:03.338Z,101859.22
2017-08-13T15:18:31.176Z,101866.87
2017-08-13T15:20:59.055Z,101863.28
2017-08-13T15:23:26.893Z,101864.72
2017-08-13T15:25:54.786Z,101872.02
2017-08-13T15:28:22.625Z,101874.77
2017-08-13T15:30:50.505Z,101874.60
2017-08-13T15:33:18.365Z,101873.82
2017-08-13T15:35:46.418Z,101876.91
2017-08-13T15:38:14.247Z,101881.81
2017-08-13T15:40:42.132Z,101874.37
2017-08-13T15:43:09.952Z,101879.43
2017-08-13T15:45:37.839Z,101887.57
2017-08-13T15:48:05.706Z,101889.59
2017-08-13T15:50:33.611Z,101885.55
2017-08-13T15:53:01.443Z,101884.42
2017-08-13T15:55:29.317Z,101885.41
2017-08-13T15:57:57.162Z,101892.31
2017-08-13T16:00:24.994Z,101888.63
2017-08-13T16:02:52.878Z,101891.59
2017-08-13T16:05:20.693Z,101888.75
2017-08-13T16:07:48.617Z,101892.66
2017-08-13T16:10:16.439Z,101892.13
2017-08-13T16:12:44.380Z,101891.84
2017-08-13T16:15:12.257Z,101892.94
2017-08-13T16:17:40.146Z,101890.52
2017-08-13T16:20:08.044Z,101897.96
2017-08-13T16:22:35.985Z,101901.25
2017-08-13T16:25:03.875Z,101904.16
2017-08-13T16:27:31.792Z,101903.56
2017-08-13T16:29:59.638Z,101898.92
2017-08-13T16:32:27.520Z,101896.25
2017-08-13T16:34:55.338Z,101893.42
2017-08-13T16:37:23.160Z,101892.33
2017-08-13T16:39:51.050Z,101898.14
2017-08-13T16:42:18.856Z,101896.33
2017-08-13T16:44:46.759Z,101883.58
2017-08-13T16:47:14.664Z,101894.20
2017-08-13T16:49:42.595Z,101897.31
2017-08-13T16:52:10.436Z,101903.08
2017-08-13T16:54:38.301Z,101909.52
2017-08-13T16:57:06.175Z,101905.75
2017-08-13T16:59:34.044Z,101918.72
2017-08-13T17:02:01.858Z,101907.04
2017-08-13T17:04:29.747Z,101919.72
2017-08-13T17:06:57.630Z,101916.12
2017-08-13T17:09:25.476Z,101914.16
2017-08-13T17:11:53.357Z,101915.34
2017-08-13T17:14:21.243Z,101919.62
2017-08-13T17:16:49.184Z,101920.16
2017-08-13T17:19:17.049Z,101918.28
2017-08-13T17:21:44.960Z,101918.37
2017-08-13T17:24:12.796Z,101920.42
2017-08-13T17:26:40.672Z,101922.58
2017-08-13T17:29:08.511Z,101926.62
2017-08-13T17:31:36.380Z,101920.70
2017-08-13T17:34:04.225Z,101918.45
2017-08-13T17:36:32.112Z,101928.65
2017-08-13T17:38:59.938Z,101930.03
2017-08-13T17:41:27.772Z,101930.81
2017-08-13T17:43:55.663Z,101927.94
2017-08-13T17:46:23.508Z,101927.32
2017-08-13T17:48:51.395Z,101931.93
2017-08-13T17:51:19.237Z,101933.95
2017-08-13T17:53:47.257Z,101935.63
2017-08-13T17:56:15.122Z,101937.31
2017-08-13T17:58:42.987Z,101938.55
2017-08-13T18:01:10.830Z,101949.73
2017-08-13T18:03:38.703Z,101957.23
2017-08-13T18:06:06.648Z,101948.73
2017-08-13T18:08:34.543Z,101952.05
2017-08-13T18:11:02.381Z,101954.42
2017-08-13T18:13:30.137Z,101946.98
2017-08-13T18:15:57.986Z,101950.86
2017-08-13T18:18:25.816Z,101953.31
2017-08-13T18:20:53.693Z,101960.89
2017-08-13T18:23:21.566Z,101957.38
2017-08-13T18:25:49.421Z,101958.48
2017-08-13T18:28:17.280Z,101970.34
2017-08-13T18:30:45.262Z,101961.59
2017-08-13T18:33:13.085Z,101970.66
2017-08-13T18:35:40.977Z,101960.97
2017-08-13T18:38:08.824Z,101967.34
2017-08-13T18:40:36.712Z,101975.69
2017-08-13T18:43:04.569Z,101982.45
2017-08-13T18:45:32.424Z,101983.13
2017-08-13T18:48:00.335Z,101989.63
2017-08-13T18:50:28.190Z,101990.59
2017-08-13T18:52:56.057Z,101996.39
2017-08-13T18:55:23.881Z,101997.17
2017-08-13T18:57:51.791Z,101998.10
2017-08-13T19:00:19.657Z,101995.57
2017-08-13T19:02:47.550Z,102001.73
2017-08-13T19:05:15.393Z,102011.05
2017-08-13T19:07:43.322Z,102011.52
2017-08-13T19:10:11.196Z,102016.27
2017-08-13T19:12:38.965Z,102018.02
2017-08-13T19:15:06.802Z,102027.80
2017-08-13T19:17:34.711Z,102030.94
2017-08-13T19:20:02.749Z,102027.66
2017-08-13T19:22:30.609Z,102037.25
2017-08-13T19:24:58.494Z,102033.48
2017-08-13T19:27:26.351Z,102046.14
2017-08-13T19:29:54.243Z,102047.72
2017-08-13T19:32:22.093Z,102043.20
2017-08-13T19:34:50.018Z,102039.11
2017-08-13T19:37:17.856Z,102049.61
2017-08-13T19:39:45.735Z,102054.34
2017-08-13T19:42:13.574Z,102047.86
2017-08-13T19:44:41.478Z,102047.37
2017-08-13T19:47:09.305Z,102050.86
2017-08-13T19:49:37.103Z,102052.94
2017-08-13T19:52:04.976Z,102053.78
2017-08-13T19:54:32.890Z,102056.41
2017-08-13T19:57:00.655Z,102061.14
2017-08-13T19:59:28.497Z,102059.84
2017-08-13T20:01:56.387Z,102059.42
2017-08-13T20:04:24.255Z,102061.48
2017-08-13T20:06:52.186Z,102063.58
2017-08-13T20:09:20.032Z,102071.19
2017-08-13T20:11:47.945Z,102071.38
2017-08-13T20:14:15.808Z,102076.46
2017-08-13T20:16:43.720Z,102081.87
2017-08-13T20:19:11.534Z,102079.16
2017-08-13T20:21:39.425Z,102079.77
2017-08-13T20:24:07.235Z,102077.61
2017-08-13T20:26:35.100Z,102081.48
2017-08-13T20:29:02.901Z,102084.55
2017-08-13T20:31:30.815Z,102077.82
2017-08-13T20:33:58.678Z,102082.06
2017-08-13T20:36:26.531Z,102083.59
2017-08-13T20:38:54.447Z,102084.92
2017-08-13T20:41:22.273Z,102085.19
2017-08-13T20:43:50.060Z,102083.06
2017-08-13T20:46:17.799Z,102081.74
2017-08-13T20:48:45.693Z,102090.04
2017-08-13T20:51:13.508Z,102084.80
2017-08-13T20:53:41.427Z,102089.30
2017-08-13T20:56:09.263Z,102091.76
2017-08-13T20:58:37.142Z,102099.14
2017-08-13T21:01:04.988Z,102099.48
2017-08-13T21:03:32.818Z,102103.05
2017-08-13T21:06:00.717Z,102104.90
2017-08-13T21:08:28.605Z,102104.55
2017-08-13T21:10:56.505Z,102105.42
2017-08-13T21:13:24.382Z,102113.80
2017-08-13T21:15:52.255Z,102112.69
2017-08-13T21:18:20.102Z,102112.58
2017-08-13T21:20:47.987Z,102117.20
2017-08-13T21:23:15.740Z,102120.86
2017-08-13T21:25:43.534Z,102122.70
2017-08-13T21:28:11.342Z,102122.32
2017-08-13T21:30:39.230Z,102123.67
2017-08-13T21:33:07.096Z,102131.41
2017-08-13T21:35:34.936Z,102131.03
2017-08-13T21:38:02.706Z,102132.95
2017-08-13T21:40:30.536Z,102137.20
2017-08-13T21:42:58.320Z,102135.55
2017-08-13T21:45:26.172Z,102132.40
2017-08-13T21:47:54.045Z,102136.25
2017-08-13T21:50:21.855Z,102133.83
2017-08-13T21:52:49.641Z,102139.63
2017-08-13T21:55:17.450Z,102149.48
2017-08-13T21:57:45.209Z,102152.59
2017-08-13T22:00:13.078Z,102147.64
2017-08-13T22:02:40.948Z,102149.81
2017-08-13T22:05:08.791Z,102151.20
2017-08-13T22:07:36.706Z,102157.62
2017-08-13T22:10:04.531Z,102157.20
2017-08-13T22:12:32.450Z,102160.25
2017-08-13T22:15:00.269Z,102154.79
2017-08-13T22:17:28.072Z,102162.53
2017-08-13T22:19:55.939Z,102161.26
2017-08-13T22:22:23.795Z,102164.83
2017-08-13T22:24:51.697Z,102167.91
2017-08-13T22:27:19.431Z,102161.66
2017-08-13T22:29:47.300Z,102157.62
2017-08-13T22:32:15.108Z,102159.89
2017-08-13T22:34:42.975Z,102166.72
2017-08-13T22:37:10.810Z,102172.47
2017-08-13T22:39:38.684Z,102166.21
2017-08-13T22:42:06.511Z,102168.48
2017-08-13T22:44:34.385Z,102168.94
2017-08-13T22:47:02.227Z,102159.19
2017-08-13T22:49:30.080Z,102165.90
2017-08-13T22:51:57.901Z,102162.56
2017-08-13T22:54:25.705Z,102163.30
2017-08-13T22:56:53.503Z,102161.39
2017-08-13T22:59:21.309Z,102171.14
2017-08-13T23:01:49.141Z,102166.12
2017-08-13T23:04:16.978Z,102165.92
2017-08-13T23:06:44.864Z,102168.22
2017-08-13T23:09:12.702Z,102170.66
2017-08-13T23:11:40.587Z,102168.32
2017-08-13T23:14:08.376Z,102168.77
2017-08-13T23:16:36.367Z,102170.45
2017-08-13T23:19:04.189Z,102177.98
2017-08-13T23:21:32.060Z,102175.94
2017-08-13T23:23:59.866Z,102173.19
2017-08-13T23:26:27.710Z,102179.50
2017-08-13T23:28:55.592Z,102176.87
2017-08-13T23:31:23.423Z,102186.94
2017-08-13T23:33:51.273Z,102187.92
2017-08-13T23:36:19.106Z,102190.55
2017-08-13T23:38:46.961Z,102186.76
2017-08-13T23:41:14.798Z,102187.98
2017-08-13T23:43:42.688Z,102183.77
2017-08-13T23:46:10.503Z,102180.80
2017-08-13T23:48:38.332Z,102181.91
2017-08-13T23:51:06.251Z,102192.75
2017-08-13T23:53:34.048Z,102196.84
2017-08-13T23:56:01.904Z,102196.73
2017-08-13T23:58:29.732Z,102194.97
